createdAt,value
2023-04-29T00:00:25.704Z,8.21
2023-04-29T00:03:14.482Z,8.18
2023-04-29T00:05:43.024Z,8.17
2023-04-29T00:08:12.156Z,8.17
2023-04-29T00:10:41.270Z,8.15
2023-04-29T00:13:10.609Z,8.12
2023-04-29T00:15:41.563Z,8.10
2023-04-29T00:18:11.172Z,8.10
2023-04-29T00:20:40.314Z,8.07
2023-04-29T00:23:09.050Z,8.06
2023-04-29T00:25:38.803Z,8.02
2023-04-29T00:28:07.549Z,8.02
2023-04-29T00:30:36.401Z,8.01
2023-04-29T00:33:11.053Z,8.01
2023-04-29T00:35:40.026Z,8.01
2023-04-29T00:38:08.913Z,8.05
2023-04-29T00:40:37.590Z,8.09
2023-04-29T00:43:05.972Z,8.10
2023-04-29T00:45:35.085Z,8.13
2023-04-29T00:48:04.776Z,8.14
2023-04-29T00:50:33.596Z,8.15
2023-04-29T00:53:02.579Z,8.17
2023-04-29T00:55:33.955Z,8.21
2023-04-29T00:58:04.451Z,8.25
2023-04-29T01:00:33.737Z,8.31
2023-04-29T01:03:02.277Z,8.35
2023-04-29T01:05:31.357Z,8.37
2023-04-29T01:08:07.330Z,8.39
2023-04-29T01:10:45.026Z,8.42
2023-04-29T01:13:38.418Z,8.44
2023-04-29T01:16:13.538Z,8.46
2023-04-29T01:18:46.659Z,8.47
2023-04-29T01:21:15.989Z,8.49
2023-04-29T01:23:46.227Z,8.51
2023-04-29T01:26:14.984Z,8.52
2023-04-29T01:28:52.489Z,8.53
2023-04-29T01:31:56.236Z,8.53
2023-04-29T01:35:02.686Z,8.51
2023-04-29T01:37:42.452Z,8.51
2023-04-29T01:40:14.019Z,8.49
2023-04-29T01:42:46.204Z,8.49
2023-04-29T01:45:18.873Z,8.48
2023-04-29T01:47:48.151Z,8.49
2023-04-29T01:50:16.513Z,8.48
2023-04-29T01:52:45.597Z,8.45
2023-04-29T01:55:13.991Z,8.44
2023-04-29T01:57:42.333Z,8.43
2023-04-29T02:00:12.188Z,8.41
2023-04-29T02:02:41.837Z,8.39
2023-04-29T02:05:10.468Z,8.37
2023-04-29T02:07:38.960Z,8.36
2023-04-29T02:10:08.096Z,8.35
2023-04-29T02:12:36.582Z,8.35
2023-04-29T02:15:05.520Z,8.34
2023-04-29T02:17:36.977Z,8.33
2023-04-29T02:20:07.143Z,8.33
2023-04-29T02:22:36.233Z,8.32
2023-04-29T02:25:05.327Z,8.33
2023-04-29T02:27:34.694Z,8.33
2023-04-29T02:30:05.172Z,8.33
2023-04-29T02:33:37.074Z,8.33
2023-04-29T02:36:05.867Z,8.32
2023-04-29T02:38:34.454Z,8.34
2023-04-29T02:41:02.980Z,8.35
2023-04-29T02:43:31.587Z,8.36
2023-04-29T02:46:00.969Z,8.37
2023-04-29T02:48:29.903Z,8.37
2023-04-29T02:50:58.940Z,8.37
2023-04-29T02:53:27.313Z,8.38
2023-04-29T02:55:56.223Z,8.41
2023-04-29T02:58:25.068Z,8.41
2023-04-29T03:00:54.155Z,8.40
2023-04-29T03:03:24.027Z,8.38
2023-04-29T03:05:53.226Z,8.36
2023-04-29T03:08:22.223Z,8.34
2023-04-29T03:10:50.593Z,8.34
2023-04-29T03:13:19.080Z,8.35
2023-04-29T03:15:47.444Z,8.34
2023-04-29T03:18:15.844Z,8.33
2023-04-29T03:20:44.183Z,8.31
2023-04-29T03:23:13.080Z,8.30
2023-04-29T03:25:42.245Z,8.29
2023-04-29T03:28:10.598Z,8.29
2023-04-29T03:30:39.116Z,8.29
2023-04-29T03:36:57.830Z,8.27
2023-04-29T03:39:26.285Z,8.26
2023-04-29T03:41:54.708Z,8.26
2023-04-29T03:44:23.671Z,8.26
2023-04-29T03:46:52.390Z,8.26
2023-04-29T03:49:20.835Z,8.24
2023-04-29T03:51:49.421Z,8.24
2023-04-29T03:54:18.345Z,8.25
2023-04-29T03:56:47.047Z,8.26
2023-04-29T03:59:16.252Z,8.27
2023-04-29T04:01:44.610Z,8.29
2023-04-29T04:04:14.065Z,8.32
2023-04-29T04:06:44.216Z,8.35
2023-04-29T04:09:13.031Z,8.39
2023-04-29T04:11:42.552Z,8.40
2023-04-29T04:14:11.088Z,8.39
2023-04-29T04:16:39.624Z,8.38
2023-04-29T04:19:08.106Z,8.38
2023-04-29T04:21:36.580Z,8.39
2023-04-29T04:24:05.622Z,8.40
2023-04-29T04:26:34.723Z,8.41
2023-04-29T04:29:04.333Z,8.43
2023-04-29T04:31:32.783Z,8.45
2023-04-29T04:34:42.417Z,8.47
2023-04-29T04:37:10.799Z,8.53
2023-04-29T04:39:40.005Z,8.58
2023-04-29T04:42:08.936Z,8.63
2023-04-29T04:44:37.977Z,8.69
2023-04-29T04:47:06.987Z,8.73
2023-04-29T04:49:36.205Z,8.78
2023-04-29T04:52:05.568Z,8.84
2023-04-29T04:54:34.111Z,8.92
2023-04-29T04:57:06.423Z,8.98
2023-04-29T04:59:34.762Z,9.03
2023-04-29T05:02:03.795Z,9.08
2023-04-29T05:04:32.412Z,9.10
2023-04-29T05:07:01.402Z,9.13
2023-04-29T05:09:29.735Z,9.14
2023-04-29T05:11:59.609Z,9.12
2023-04-29T05:14:28.718Z,9.09
2023-04-29T05:17:00.584Z,9.06
2023-04-29T05:19:29.741Z,9.05
2023-04-29T05:21:58.170Z,9.04
2023-04-29T05:24:26.671Z,9.02
2023-04-29T05:26:55.034Z,9.03
2023-04-29T05:29:23.752Z,9.04
2023-04-29T05:31:52.445Z,9.09
2023-04-29T05:34:20.986Z,9.15
2023-04-29T05:36:49.340Z,9.22
2023-04-29T05:39:18.340Z,9.32
2023-04-29T05:41:46.715Z,9.40
2023-04-29T05:44:15.156Z,9.47
2023-04-29T05:46:43.568Z,9.55
2023-04-29T05:49:12.112Z,9.63
2023-04-29T05:51:41.019Z,9.69
2023-04-29T05:54:09.351Z,9.75
2023-04-29T05:56:37.734Z,9.81
2023-04-29T05:59:05.974Z,9.87
2023-04-29T06:01:34.642Z,9.93
2023-04-29T06:04:04.255Z,10.02
2023-04-29T06:06:33.112Z,10.14
2023-04-29T06:09:01.991Z,10.27
2023-04-29T06:11:31.893Z,10.40
2023-04-29T06:14:00.239Z,10.51
2023-04-29T06:16:29.196Z,10.70
2023-04-29T06:18:57.686Z,10.93
2023-04-29T06:21:26.003Z,11.19
2023-04-29T06:23:55.020Z,11.51
2023-04-29T06:26:24.476Z,11.79
2023-04-29T06:28:55.334Z,12.02
2023-04-29T06:31:23.752Z,12.17
2023-04-29T06:33:53.725Z,12.34
2023-04-29T06:36:22.551Z,12.76
2023-04-29T06:38:51.507Z,13.10
2023-04-29T06:41:19.925Z,13.20
2023-04-29T06:43:49.108Z,13.10
2023-04-29T06:46:17.550Z,13.14
2023-04-29T06:48:46.317Z,13.37
2023-04-29T06:51:14.652Z,13.64
2023-04-29T06:53:43.502Z,14.11
2023-04-29T06:56:12.164Z,14.59
2023-04-29T06:58:40.492Z,15.02
2023-04-29T07:01:09.763Z,15.30
2023-04-29T07:03:38.744Z,15.27
2023-04-29T07:06:07.313Z,15.16
2023-04-29T07:08:35.581Z,15.29
2023-04-29T07:11:04.316Z,15.46
2023-04-29T07:13:32.701Z,15.30
2023-04-29T07:16:00.904Z,15.19
2023-04-29T07:18:29.512Z,15.16
2023-04-29T07:21:02.500Z,15.06
2023-04-29T07:23:30.862Z,15.02
2023-04-29T07:25:59.268Z,14.90
2023-04-29T07:28:27.546Z,14.77
2023-04-29T07:30:55.785Z,14.55
2023-04-29T07:33:25.133Z,14.47
2023-04-29T07:35:53.576Z,14.50
2023-04-29T07:38:22.392Z,14.71
2023-04-29T07:40:50.737Z,14.92
2023-04-29T07:43:18.952Z,15.13
2023-04-29T07:45:47.477Z,15.39
2023-04-29T07:48:16.002Z,15.27
2023-04-29T07:50:44.766Z,15.36
2023-04-29T07:53:13.347Z,15.61
2023-04-29T07:55:41.624Z,15.88
2023-04-29T07:58:09.931Z,15.90
2023-04-29T08:00:38.819Z,15.69
2023-04-29T08:03:07.181Z,15.33
2023-04-29T08:05:36.794Z,15.21
2023-04-29T08:08:06.297Z,15.21
2023-04-29T08:10:41.214Z,15.01
2023-04-29T08:13:09.610Z,14.73
2023-04-29T08:15:37.859Z,14.68
2023-04-29T08:18:06.359Z,14.72
2023-04-29T08:20:34.730Z,14.80
2023-04-29T08:23:03.515Z,14.92
2023-04-29T08:25:31.719Z,15.24
2023-04-29T08:28:00.641Z,15.62
2023-04-29T08:30:28.916Z,16.17
2023-04-29T08:32:57.275Z,16.57
2023-04-29T08:35:26.572Z,17.06
2023-04-29T08:37:54.903Z,17.41
2023-04-29T08:40:23.139Z,17.71
2023-04-29T08:42:53.485Z,18.06
2023-04-29T08:45:25.243Z,18.17
2023-04-29T08:47:55.529Z,18.10
2023-04-29T08:50:24.906Z,18.38
2023-04-29T08:52:53.652Z,18.36
2023-04-29T08:55:22.631Z,18.11
2023-04-29T08:57:54.236Z,17.88
2023-04-29T09:00:25.073Z,17.93
2023-04-29T09:02:57.982Z,18.09
2023-04-29T09:05:29.012Z,18.36
2023-04-29T09:08:03.682Z,18.64
2023-04-29T09:10:33.640Z,18.75
2023-04-29T09:13:02.009Z,18.63
2023-04-29T09:15:30.343Z,18.76
2023-04-29T09:17:58.729Z,18.50
2023-04-29T09:20:28.415Z,18.24
2023-04-29T09:23:02.221Z,17.81
2023-04-29T09:25:31.872Z,17.56
2023-04-29T09:28:16.164Z,17.59
2023-04-29T09:30:47.722Z,17.89
2023-04-29T09:33:17.601Z,19.25
2023-04-29T09:35:47.433Z,20.54
2023-04-29T09:38:17.176Z,22.23
2023-04-29T09:40:57.598Z,22.41
2023-04-29T09:43:27.610Z,22.79
2023-04-29T09:45:56.198Z,22.58
2023-04-29T09:48:34.129Z,22.31
2023-04-29T09:51:06.120Z,22.08
2023-04-29T09:53:38.318Z,21.76
2023-04-29T09:56:07.646Z,21.21
2023-04-29T09:58:39.467Z,20.58
2023-04-29T10:01:08.664Z,20.03
2023-04-29T10:03:38.923Z,19.87
2023-04-29T10:06:09.304Z,19.79
2023-04-29T10:08:39.408Z,19.39
2023-04-29T10:11:08.420Z,18.84
2023-04-29T10:13:38.949Z,18.48
2023-04-29T10:16:16.292Z,18.55
2023-04-29T10:18:52.722Z,18.74
2023-04-29T10:21:33.241Z,19.05
2023-04-29T10:24:02.827Z,19.93
2023-04-29T10:26:32.455Z,20.91
2023-04-29T10:29:01.519Z,22.07
2023-04-29T10:31:32.117Z,23.79
2023-04-29T10:34:51.387Z,25.09
2023-04-29T10:37:20.557Z,25.91
2023-04-29T10:40:09.245Z,25.94
2023-04-29T10:42:48.885Z,26.24
2023-04-29T10:45:27.862Z,26.02
2023-04-29T10:48:24.879Z,25.16
2023-04-29T10:50:53.206Z,24.29
2023-04-29T10:53:22.499Z,23.51
2023-04-29T10:56:05.734Z,22.59
2023-04-29T10:58:47.473Z,22.06
2023-04-29T11:01:17.827Z,21.70
2023-04-29T11:04:05.077Z,21.58
2023-04-29T11:06:36.979Z,21.49
2023-04-29T11:09:09.953Z,21.48
2023-04-29T11:12:05.790Z,21.57
2023-04-29T11:15:03.357Z,21.42
2023-04-29T11:17:38.886Z,21.33
2023-04-29T11:20:14.171Z,21.03
2023-04-29T11:22:51.654Z,21.05
2023-04-29T11:25:20.116Z,21.00
2023-04-29T11:27:49.985Z,20.99
2023-04-29T11:30:20.131Z,20.90
2023-04-29T11:32:52.568Z,20.92
2023-04-29T11:35:21.762Z,21.11
2023-04-29T11:37:50.336Z,21.69
2023-04-29T11:40:18.659Z,21.73
2023-04-29T11:42:50.797Z,21.80
2023-04-29T11:45:25.443Z,22.60
2023-04-29T11:47:55.659Z,23.56
2023-04-29T11:50:24.520Z,23.77
2023-04-29T11:52:53.390Z,24.14
2023-04-29T11:55:22.387Z,24.30
2023-04-29T11:57:52.681Z,23.80
2023-04-29T12:00:21.963Z,22.98
2023-04-29T12:02:50.387Z,22.47
2023-04-29T12:05:19.837Z,22.19
2023-04-29T12:07:51.505Z,22.06
2023-04-29T12:10:21.382Z,22.11
2023-04-29T12:12:54.273Z,22.46
2023-04-29T12:15:23.414Z,22.51
2023-04-29T12:17:52.434Z,22.23
2023-04-29T12:20:21.446Z,21.90
2023-04-29T12:22:50.313Z,21.36
2023-04-29T12:25:18.693Z,21.05
2023-04-29T12:27:47.011Z,20.85
2023-04-29T12:30:15.382Z,20.84
2023-04-29T12:32:45.573Z,20.98
2023-04-29T12:35:18.234Z,21.45
2023-04-29T12:37:52.997Z,22.91
2023-04-29T12:40:21.468Z,23.37
2023-04-29T12:42:49.821Z,23.56
2023-04-29T12:45:33.490Z,23.92
2023-04-29T12:48:07.165Z,23.82
2023-04-29T12:50:39.457Z,23.62
2023-04-29T12:53:09.837Z,23.30
2023-04-29T12:55:40.443Z,22.88
2023-04-29T12:58:09.865Z,22.29
2023-04-29T13:00:38.402Z,21.92
2023-04-29T13:03:07.923Z,21.74
2023-04-29T13:05:37.272Z,21.66
2023-04-29T13:08:09.281Z,21.74
2023-04-29T13:10:37.770Z,21.71
2023-04-29T13:13:06.162Z,21.65
2023-04-29T13:15:34.673Z,21.85
2023-04-29T13:18:03.413Z,22.07
2023-04-29T13:20:41.114Z,22.09
2023-04-29T13:23:12.679Z,22.18
2023-04-29T13:25:41.217Z,22.21
2023-04-29T13:28:10.003Z,22.20
2023-04-29T13:30:38.354Z,22.20
2023-04-29T13:33:12.321Z,22.21
2023-04-29T13:35:42.193Z,22.07
2023-04-29T13:38:11.596Z,22.07
2023-04-29T13:40:46.102Z,22.13
2023-04-29T13:43:23.415Z,21.94
2023-04-29T13:45:57.852Z,21.57
2023-04-29T13:54:17.374Z,20.38
2023-04-29T13:59:37.304Z,20.03
2023-04-29T14:04:13.563Z,19.62
2023-04-29T14:06:44.480Z,19.41
2023-04-29T14:09:12.922Z,19.23
2023-04-29T14:11:41.672Z,19.02
2023-04-29T14:14:10.330Z,18.77
2023-04-29T14:16:39.194Z,18.49
2023-04-29T14:19:08.068Z,18.35
2023-04-29T14:21:36.387Z,18.25
2023-04-29T14:24:05.016Z,18.13
2023-04-29T14:26:33.655Z,17.96
2023-04-29T14:29:02.002Z,17.63
2023-04-29T14:31:32.462Z,17.31
2023-04-29T14:34:00.986Z,17.01
2023-04-29T14:36:29.476Z,16.49
2023-04-29T14:38:57.884Z,15.98
2023-04-29T14:41:26.336Z,15.61
2023-04-29T14:43:54.854Z,15.29
2023-04-29T14:46:23.761Z,15.06
2023-04-29T14:48:52.283Z,14.77
2023-04-29T14:51:21.219Z,14.46
2023-04-29T14:53:50.372Z,14.22
2023-04-29T14:56:18.804Z,14.08
2023-04-29T14:58:47.204Z,13.99
2023-04-29T15:01:16.037Z,13.93
2023-04-29T15:03:45.409Z,13.87
2023-04-29T15:06:14.952Z,13.84
2023-04-29T15:08:43.506Z,13.85
2023-04-29T15:11:12.596Z,13.87
2023-04-29T15:13:41.065Z,13.88
2023-04-29T15:16:09.602Z,13.91
2023-04-29T15:18:38.814Z,13.95
2023-04-29T15:21:07.925Z,13.94
2023-04-29T15:23:36.753Z,13.91
2023-04-29T15:26:05.555Z,13.93
2023-04-29T15:28:34.180Z,13.95
2023-04-29T15:31:05.130Z,13.96
2023-04-29T15:33:33.641Z,13.98
2023-04-29T15:36:02.088Z,14.02
2023-04-29T15:38:30.497Z,14.05
2023-04-29T15:41:01.754Z,14.06
2023-04-29T15:43:31.947Z,14.08
2023-04-29T15:46:00.604Z,14.12
2023-04-29T15:48:29.883Z,14.16
2023-04-29T15:50:58.186Z,14.23
2023-04-29T15:53:26.564Z,14.31
2023-04-29T15:55:56.022Z,14.39
2023-04-29T15:58:24.403Z,14.47
2023-04-29T16:00:52.888Z,14.50
2023-04-29T16:03:21.541Z,14.52
2023-04-29T16:05:50.450Z,14.52
2023-04-29T16:08:19.549Z,14.52
2023-04-29T16:10:49.938Z,14.52
2023-04-29T16:13:19.433Z,14.54
2023-04-29T16:15:47.920Z,14.54
2023-04-29T16:18:17.735Z,14.55
2023-04-29T16:20:46.178Z,14.55
2023-04-29T16:23:14.578Z,14.55
2023-04-29T16:25:43.657Z,14.57
2023-04-29T16:28:12.137Z,14.60
2023-04-29T16:30:40.619Z,14.62
2023-04-29T16:33:10.002Z,14.64
2023-04-29T16:35:38.850Z,14.64
2023-04-29T16:38:07.667Z,14.66
2023-04-29T16:40:36.021Z,14.63
2023-04-29T16:43:04.486Z,14.59
2023-04-29T16:45:33.083Z,14.53
2023-04-29T16:48:02.174Z,14.49
2023-04-29T16:50:30.927Z,14.47
2023-04-29T16:52:59.871Z,14.41
2023-04-29T16:55:31.076Z,14.30
2023-04-29T16:57:59.620Z,14.22
2023-04-29T17:00:27.963Z,14.18
2023-04-29T17:03:00.297Z,14.12
2023-04-29T17:05:28.860Z,14.07
2023-04-29T17:07:57.179Z,14.01
2023-04-29T17:10:26.186Z,13.99
2023-04-29T17:12:55.065Z,13.95
2023-04-29T17:15:23.510Z,13.91
2023-04-29T17:17:52.029Z,13.87
2023-04-29T17:20:20.943Z,13.84
2023-04-29T17:22:49.653Z,13.75
2023-04-29T17:25:18.504Z,13.66
2023-04-29T17:27:47.678Z,13.58
2023-04-29T17:30:16.136Z,13.50
2023-04-29T17:32:47.273Z,13.37
2023-04-29T17:35:16.453Z,13.28
2023-04-29T17:37:45.492Z,13.21
2023-04-29T17:40:14.330Z,13.15
2023-04-29T17:42:48.445Z,13.10
2023-04-29T17:45:17.548Z,13.04
2023-04-29T17:47:46.291Z,12.99
2023-04-29T17:50:17.525Z,12.93
2023-04-29T17:52:46.935Z,12.82
2023-04-29T17:55:16.844Z,12.71
2023-04-29T17:57:47.147Z,12.64
2023-04-29T18:00:17.235Z,12.60
2023-04-29T18:02:48.268Z,12.57
2023-04-29T18:05:17.634Z,12.53
2023-04-29T18:07:50.542Z,12.50
2023-04-29T18:10:19.282Z,12.44
2023-04-29T18:12:47.809Z,12.36
2023-04-29T18:15:16.934Z,12.26
2023-04-29T18:17:49.688Z,12.17
2023-04-29T18:20:19.903Z,12.08
2023-04-29T18:22:50.735Z,12.00
2023-04-29T18:25:20.356Z,11.96
2023-04-29T18:27:48.791Z,11.92
2023-04-29T18:30:17.253Z,11.89
2023-04-29T18:32:45.778Z,11.86
2023-04-29T18:35:14.409Z,11.85
2023-04-29T18:37:42.899Z,11.82
2023-04-29T18:40:12.204Z,11.78
2023-04-29T18:42:41.268Z,11.77
2023-04-29T18:45:10.696Z,11.72
2023-04-29T18:47:39.610Z,11.70
2023-04-29T18:50:12.685Z,11.69
2023-04-29T18:52:42.075Z,11.68
2023-04-29T18:55:12.018Z,11.64
2023-04-29T18:57:40.741Z,11.56
2023-04-29T19:00:10.400Z,11.49
2023-04-29T19:02:39.050Z,11.47
2023-04-29T19:05:12.986Z,11.46
2023-04-29T19:07:42.233Z,11.44
2023-04-29T19:10:12.124Z,11.36
2023-04-29T19:12:42.567Z,11.30
2023-04-29T19:15:12.487Z,11.19
2023-04-29T19:17:41.418Z,11.06
2023-04-29T19:20:10.976Z,11.00
2023-04-29T19:22:40.102Z,10.95
2023-04-29T19:25:11.150Z,10.92
2023-04-29T19:27:49.357Z,10.91
2023-04-29T19:30:19.253Z,10.86
2023-04-29T19:32:47.928Z,10.85
2023-04-29T19:35:18.223Z,10.80
2023-04-29T19:37:50.160Z,10.73
2023-04-29T19:40:19.046Z,10.68
2023-04-29T19:42:53.890Z,10.66
2023-04-29T19:45:23.302Z,10.63
2023-04-29T19:47:52.367Z,10.61
2023-04-29T19:50:23.009Z,10.61
2023-04-29T19:52:52.167Z,10.56
2023-04-29T19:55:25.163Z,10.48
2023-04-29T19:57:53.582Z,10.47
2023-04-29T20:00:23.897Z,10.46
2023-04-29T20:02:54.008Z,10.45
2023-04-29T20:05:23.329Z,10.42
2023-04-29T20:07:52.875Z,10.37
2023-04-29T20:10:23.023Z,10.35
2023-04-29T20:12:52.020Z,10.32
2023-04-29T20:15:20.637Z,10.29
2023-04-29T20:17:51.058Z,10.18
2023-04-29T20:20:19.528Z,10.10
2023-04-29T20:22:48.507Z,10.04
2023-04-29T20:25:18.060Z,9.98
2023-04-29T20:27:47.858Z,9.94
2023-04-29T20:30:16.195Z,9.86
2023-04-29T20:32:45.035Z,9.82
2023-04-29T20:35:15.040Z,9.80
2023-04-29T20:37:43.624Z,9.81
2023-04-29T20:40:12.245Z,9.82
2023-04-29T20:42:41.991Z,9.84
2023-04-29T20:45:13.012Z,9.84
2023-04-29T20:47:42.386Z,9.84
2023-04-29T20:50:12.229Z,9.83
2023-04-29T20:52:40.899Z,9.79
2023-04-29T20:55:10.309Z,9.73
2023-04-29T20:57:39.959Z,9.68
2023-04-29T21:00:10.059Z,9.65
2023-04-29T21:02:38.826Z,9.60
2023-04-29T21:05:10.024Z,9.54
2023-04-29T21:07:38.654Z,9.50
2023-04-29T21:10:07.444Z,9.44
2023-04-29T21:12:36.293Z,9.40
2023-04-29T21:15:06.452Z,9.38
2023-04-29T21:17:35.419Z,9.35
2023-04-29T21:20:05.385Z,9.32
2023-04-29T21:22:33.694Z,9.28
2023-04-29T21:25:02.125Z,9.27
2023-04-29T21:27:30.588Z,9.26
2023-04-29T21:29:59.137Z,9.24
2023-04-29T21:32:28.332Z,9.21
2023-04-29T21:35:28.221Z,9.17
2023-04-29T21:37:57.761Z,9.15
2023-04-29T21:40:26.933Z,9.13
2023-04-29T21:42:58.469Z,9.10
2023-04-29T21:45:26.822Z,9.09
2023-04-29T21:47:57.648Z,9.08
2023-04-29T21:50:26.379Z,9.08
2023-04-29T21:52:56.004Z,9.07
2023-04-29T21:55:24.499Z,9.05
2023-04-29T21:57:52.838Z,9.04
2023-04-29T22:00:33.423Z,9.05
2023-04-29T22:03:03.631Z,9.06
2023-04-29T22:05:32.654Z,9.04
2023-04-29T22:08:03.422Z,9.03
2023-04-29T22:10:32.381Z,9.02
2023-04-29T22:13:00.838Z,9.02
2023-04-29T22:15:29.764Z,9.01
2023-04-29T22:17:58.636Z,9.03
2023-04-29T22:20:27.552Z,9.01
2023-04-29T22:22:56.698Z,8.99
2023-04-29T22:25:25.056Z,8.97
2023-04-29T22:27:53.499Z,8.93
2023-04-29T22:30:21.858Z,8.89
2023-04-29T22:32:50.345Z,8.82
2023-04-29T22:35:19.109Z,8.79
2023-04-29T22:37:47.675Z,8.77
2023-04-29T22:40:16.000Z,8.75
2023-04-29T22:42:44.695Z,8.71
2023-04-29T22:45:13.521Z,8.67
2023-04-29T22:47:42.369Z,8.62
2023-04-29T22:50:11.202Z,8.55
2023-04-29T22:52:39.980Z,8.48
2023-04-29T22:55:09.625Z,8.40
2023-04-29T22:57:37.971Z,8.33
2023-04-29T23:00:07.298Z,8.27
2023-04-29T23:02:35.685Z,8.21
2023-04-29T23:05:05.080Z,8.13
2023-04-29T23:07:34.114Z,8.08
2023-04-29T23:10:02.521Z,8.03
2023-04-29T23:12:30.897Z,7.98
2023-04-29T23:14:59.312Z,7.94
2023-04-29T23:17:27.791Z,7.91
2023-04-29T23:19:56.269Z,7.89
2023-04-29T23:22:25.117Z,7.84
2023-04-29T23:24:54.493Z,7.79
2023-04-29T23:27:22.957Z,7.78
2023-04-29T23:29:51.340Z,7.75
2023-04-29T23:32:21.008Z,7.69
2023-04-29T23:35:32.712Z,7.63
2023-04-29T23:38:01.118Z,7.56
2023-04-29T23:40:31.184Z,7.53
2023-04-29T23:43:00.181Z,7.48
2023-04-29T23:45:28.607Z,7.44
2023-04-29T23:47:56.944Z,7.38
2023-04-29T23:50:25.359Z,7.33
2023-04-29T23:52:54.254Z,7.29
2023-04-29T23:55:23.057Z,7.28
2023-04-29T23:57:52.232Z,7.25
